sensor_id;sensor_type;location;lat;lon;timestamp;temperature;humidity
13148;DHT22;6639;50.956;4.242;2023-02-11T00:01:18;11.40;99.90
13148;DHT22;6639;50.956;4.242;2023-02-11T00:03:45;11.10;99.90
13148;DHT22;6639;50.956;4.242;2023-02-11T00:06:12;10.60;99.90
13148;DHT22;6639;50.956;4.242;2023-02-11T00:08:41;10.80;99.90
13148;DHT22;6639;50.956;4.242;2023-02-11T00:11:12;10.60;99.90
13148;DHT22;6639;50.956;4.242;2023-02-11T00:13:39;10.50;99.90
13148;DHT22;6639;50.956;4.242;2023-02-11T00:16:09;10.70;99.90
13148;DHT22;6639;50.956;4.242;2023-02-11T00:18:37;10.70;99.90
13148;DHT22;6639;50.956;4.242;2023-02-11T00:21:07;10.80;99.90
13148;DHT22;6639;50.956;4.242;2023-02-11T00:23:35;10.80;99.90
13148;DHT22;6639;50.956;4.242;2023-02-11T00:26:03;10.80;99.90
13148;DHT22;6639;50.956;4.242;2023-02-11T00:28:31;10.60;99.90
13148;DHT22;6639;50.956;4.242;2023-02-11T00:30:59;10.80;99.90
13148;DHT22;6639;50.956;4.242;2023-02-11T00:33:28;10.90;99.90
13148;DHT22;6639;50.956;4.242;2023-02-11T00:35:55;11.10;99.90
13148;DHT22;6639;50.956;4.242;2023-02-11T00:38:22;11.30;99.90
13148;DHT22;6639;50.956;4.242;2023-02-11T00:40:49;11.40;99.90
13148;DHT22;6639;50.956;4.242;2023-02-11T00:43:16;11.50;99.90
13148;DHT22;6639;50.956;4.242;2023-02-11T00:45:43;11.50;99.90
13148;DHT22;6639;50.956;4.242;2023-02-11T00:48:10;11.50;99.90
13148;DHT22;6639;50.956;4.242;2023-02-11T00:50:39;11.30;99.90
13148;DHT22;6639;50.956;4.242;2023-02-11T00:53:06;10.90;99.90
13148;DHT22;6639;50.956;4.242;2023-02-11T00:55:33;10.50;99.90
13148;DHT22;6639;50.956;4.242;2023-02-11T00:58:00;10.40;99.90
13148;DHT22;6639;50.956;4.242;2023-02-11T01:00:28;9.90;99.90
13148;DHT22;6639;50.956;4.242;2023-02-11T01:02:55;10.00;99.90
13148;DHT22;6639;50.956;4.242;2023-02-11T01:05:22;10.10;99.90
13148;DHT22;6639;50.956;4.242;2023-02-11T01:07:51;10.10;99.90
13148;DHT22;6639;50.956;4.242;2023-02-11T01:10:18;10.00;99.90
13148;DHT22;6639;50.956;4.242;2023-02-11T01:12:45;10.20;99.90
13148;DHT22;6639;50.956;4.242;2023-02-11T01:15:14;10.30;99.90
13148;DHT22;6639;50.956;4.242;2023-02-11T01:17:42;10.30;99.90
13148;DHT22;6639;50.956;4.242;2023-02-11T01:20:13;10.30;99.90
13148;DHT22;6639;50.956;4.242;2023-02-11T01:22:41;10.30;99.90
13148;DHT22;6639;50.956;4.242;2023-02-11T01:25:10;10.30;99.90
13148;DHT22;6639;50.956;4.242;2023-02-11T01:27:37;10.40;99.90
13148;DHT22;6639;50.956;4.242;2023-02-11T01:30:06;10.20;99.90
13148;DHT22;6639;50.956;4.242;2023-02-11T01:32:34;9.90;99.90
13148;DHT22;6639;50.956;4.242;2023-02-11T01:35:01;10.30;99.90
13148;DHT22;6639;50.956;4.242;2023-02-11T01:37:28;10.40;99.90
13148;DHT22;6639;50.956;4.242;2023-02-11T01:39:58;10.30;99.90
13148;DHT22;6639;50.956;4.242;2023-02-11T01:42:26;10.30;99.90
13148;DHT22;6639;50.956;4.242;2023-02-11T01:44:56;10.00;99.90
13148;DHT22;6639;50.956;4.242;2023-02-11T01:47:23;10.30;99.90
13148;DHT22;6639;50.956;4.242;2023-02-11T01:49:51;10.10;99.90
13148;DHT22;6639;50.956;4.242;2023-02-11T01:52:22;10.30;99.90
13148;DHT22;6639;50.956;4.242;2023-02-11T01:54:53;10.20;99.90
13148;DHT22;6639;50.956;4.242;2023-02-11T01:57:43;10.20;99.90
13148;DHT22;6639;50.956;4.242;2023-02-11T02:00:14;10.70;99.90
13148;DHT22;6639;50.956;4.242;2023-02-11T02:02:48;10.90;99.90
13148;DHT22;6639;50.956;4.242;2023-02-11T02:05:23;10.50;99.90
13148;DHT22;6639;50.956;4.242;2023-02-11T02:07:59;10.90;99.90
13148;DHT22;6639;50.956;4.242;2023-02-11T02:10:28;10.90;99.90
13148;DHT22;6639;50.956;4.242;2023-02-11T02:12:57;10.70;99.90
13148;DHT22;6639;50.956;4.242;2023-02-11T02:15:27;10.40;99.90
13148;DHT22;6639;50.956;4.242;2023-02-11T02:18:19;10.30;99.90
13148;DHT22;6639;50.956;4.242;2023-02-11T02:21:18;10.50;99.90
13148;DHT22;6639;50.956;4.242;2023-02-11T02:24:20;10.50;99.90
13148;DHT22;6639;50.956;4.242;2023-02-11T02:27:11;10.70;99.90
13148;DHT22;6639;50.956;4.242;2023-02-11T02:32:45;10.70;99.90
13148;DHT22;6639;50.956;4.242;2023-02-11T02:35:23;11.00;99.90
13148;DHT22;6639;50.956;4.242;2023-02-11T02:37:58;10.60;99.90
13148;DHT22;6639;50.956;4.242;2023-02-11T02:40:30;10.50;99.90
13148;DHT22;6639;50.956;4.242;2023-02-11T02:43:00;10.40;99.90
13148;DHT22;6639;50.956;4.242;2023-02-11T02:45:27;10.70;99.90
13148;DHT22;6639;50.956;4.242;2023-02-11T02:47:55;10.50;99.90
13148;DHT22;6639;50.956;4.242;2023-02-11T02:50:29;10.60;99.90
13148;DHT22;6639;50.956;4.242;2023-02-11T02:53:11;10.70;99.90
13148;DHT22;6639;50.956;4.242;2023-02-11T02:55:51;10.90;99.90
13148;DHT22;6639;50.956;4.242;2023-02-11T02:58:36;10.80;99.90
13148;DHT22;6639;50.956;4.242;2023-02-11T03:01:12;10.80;99.90
13148;DHT22;6639;50.956;4.242;2023-02-11T03:03:48;10.90;99.90
13148;DHT22;6639;50.956;4.242;2023-02-11T03:06:26;11.10;99.90
13148;DHT22;6639;50.956;4.242;2023-02-11T03:09:00;11.30;99.90
13148;DHT22;6639;50.956;4.242;2023-02-11T03:11:29;11.20;99.90
13148;DHT22;6639;50.956;4.242;2023-02-11T03:14:00;11.10;99.90
13148;DHT22;6639;50.956;4.242;2023-02-11T03:16:29;11.30;99.90
13148;DHT22;6639;50.956;4.242;2023-02-11T03:19:05;11.20;99.90
13148;DHT22;6639;50.956;4.242;2023-02-11T03:21:35;11.20;99.90
13148;DHT22;6639;50.956;4.242;2023-02-11T03:24:07;11.40;99.90
13148;DHT22;6639;50.956;4.242;2023-02-11T03:26:39;11.40;99.90
13148;DHT22;6639;50.956;4.242;2023-02-11T03:29:13;11.60;99.90
13148;DHT22;6639;50.956;4.242;2023-02-11T03:31:49;11.60;99.90
13148;DHT22;6639;50.956;4.242;2023-02-11T03:34:24;11.20;99.90
13148;DHT22;6639;50.956;4.242;2023-02-11T03:36:58;11.50;99.90
13148;DHT22;6639;50.956;4.242;2023-02-11T03:39:28;11.80;99.90
13148;DHT22;6639;50.956;4.242;2023-02-11T03:41:58;12.00;99.90
13148;DHT22;6639;50.956;4.242;2023-02-11T03:44:30;11.90;99.90
13148;DHT22;6639;50.956;4.242;2023-02-11T03:47:00;11.90;99.90
13148;DHT22;6639;50.956;4.242;2023-02-11T03:49:31;11.90;99.90
13148;DHT22;6639;50.956;4.242;2023-02-11T03:52:00;11.70;99.90
13148;DHT22;6639;50.956;4.242;2023-02-11T03:54:29;11.80;99.90
13148;DHT22;6639;50.956;4.242;2023-02-11T03:56:58;11.80;99.90
13148;DHT22;6639;50.956;4.242;2023-02-11T03:59:26;11.50;99.90
13148;DHT22;6639;50.956;4.242;2023-02-11T04:01:53;11.60;99.90
13148;DHT22;6639;50.956;4.242;2023-02-11T04:04:20;11.60;99.90
13148;DHT22;6639;50.956;4.242;2023-02-11T04:06:48;11.60;99.90
13148;DHT22;6639;50.956;4.242;2023-02-11T04:09:15;11.70;99.90
13148;DHT22;6639;50.956;4.242;2023-02-11T04:11:42;11.90;99.90
13148;DHT22;6639;50.956;4.242;2023-02-11T04:14:09;11.40;99.90
13148;DHT22;6639;50.956;4.242;2023-02-11T04:16:36;11.20;99.90
13148;DHT22;6639;50.956;4.242;2023-02-11T04:19:03;11.40;99.90
13148;DHT22;6639;50.956;4.242;2023-02-11T04:21:33;11.30;99.90
13148;DHT22;6639;50.956;4.242;2023-02-11T04:24:03;11.50;99.90
13148;DHT22;6639;50.956;4.242;2023-02-11T04:26:30;11.80;99.90
13148;DHT22;6639;50.956;4.242;2023-02-11T04:28:57;11.90;99.90
13148;DHT22;6639;50.956;4.242;2023-02-11T04:31:24;11.80;99.90
13148;DHT22;6639;50.956;4.242;2023-02-11T04:33:51;12.00;99.90
13148;DHT22;6639;50.956;4.242;2023-02-11T04:36:18;11.70;99.90
13148;DHT22;6639;50.956;4.242;2023-02-11T04:38:45;11.50;99.90
13148;DHT22;6639;50.956;4.242;2023-02-11T04:41:13;11.50;99.90
13148;DHT22;6639;50.956;4.242;2023-02-11T04:43:40;11.90;99.90
13148;DHT22;6639;50.956;4.242;2023-02-11T04:46:07;12.10;99.90
13148;DHT22;6639;50.956;4.242;2023-02-11T04:48:35;12.20;99.90
13148;DHT22;6639;50.956;4.242;2023-02-11T04:51:02;12.10;99.90
13148;DHT22;6639;50.956;4.242;2023-02-11T04:53:29;12.30;99.90
13148;DHT22;6639;50.956;4.242;2023-02-11T04:55:56;12.20;99.90
13148;DHT22;6639;50.956;4.242;2023-02-11T04:58:25;11.50;99.90
13148;DHT22;6639;50.956;4.242;2023-02-11T05:00:52;11.30;99.90
13148;DHT22;6639;50.956;4.242;2023-02-11T05:03:19;11.60;99.90
13148;DHT22;6639;50.956;4.242;2023-02-11T05:05:46;11.90;99.90
13148;DHT22;6639;50.956;4.242;2023-02-11T05:08:13;11.80;99.90
13148;DHT22;6639;50.956;4.242;2023-02-11T05:10:45;11.40;99.90
13148;DHT22;6639;50.956;4.242;2023-02-11T05:13:12;11.10;99.90
13148;DHT22;6639;50.956;4.242;2023-02-11T05:15:40;11.50;99.90
13148;DHT22;6639;50.956;4.242;2023-02-11T05:18:07;11.30;99.90
13148;DHT22;6639;50.956;4.242;2023-02-11T05:20:36;11.00;99.90
13148;DHT22;6639;50.956;4.242;2023-02-11T05:23:03;11.00;99.90
13148;DHT22;6639;50.956;4.242;2023-02-11T05:25:30;11.40;99.90
13148;DHT22;6639;50.956;4.242;2023-02-11T05:27:57;11.10;99.90
13148;DHT22;6639;50.956;4.242;2023-02-11T05:30:24;11.30;99.90
13148;DHT22;6639;50.956;4.242;2023-02-11T05:32:53;10.90;99.90
13148;DHT22;6639;50.956;4.242;2023-02-11T05:35:20;10.70;99.90
13148;DHT22;6639;50.956;4.242;2023-02-11T05:37:47;10.90;99.90
13148;DHT22;6639;50.956;4.242;2023-02-11T05:40:14;10.90;99.90
13148;DHT22;6639;50.956;4.242;2023-02-11T05:42:41;10.90;99.90
13148;DHT22;6639;50.956;4.242;2023-02-11T05:45:09;10.90;99.90
13148;DHT22;6639;50.956;4.242;2023-02-11T05:47:36;10.70;99.90
13148;DHT22;6639;50.956;4.242;2023-02-11T05:50:05;10.90;99.90
13148;DHT22;6639;50.956;4.242;2023-02-11T05:52:32;11.00;99.90
13148;DHT22;6639;50.956;4.242;2023-02-11T05:54:59;10.70;99.90
13148;DHT22;6639;50.956;4.242;2023-02-11T05:57:26;10.60;99.90
13148;DHT22;6639;50.956;4.242;2023-02-11T05:59:56;10.80;99.90
13148;DHT22;6639;50.956;4.242;2023-02-11T06:02:23;11.00;99.90
13148;DHT22;6639;50.956;4.242;2023-02-11T06:04:50;11.20;99.90
13148;DHT22;6639;50.956;4.242;2023-02-11T06:07:18;11.40;99.90
13148;DHT22;6639;50.956;4.242;2023-02-11T06:09:45;11.30;99.90
13148;DHT22;6639;50.956;4.242;2023-02-11T06:12:12;11.30;99.90
13148;DHT22;6639;50.956;4.242;2023-02-11T06:14:41;11.40;99.90
13148;DHT22;6639;50.956;4.242;2023-02-11T06:17:08;11.40;99.90
13148;DHT22;6639;50.956;4.242;2023-02-11T06:19:35;11.50;99.90
13148;DHT22;6639;50.956;4.242;2023-02-11T06:22:02;11.60;99.90
13148;DHT22;6639;50.956;4.242;2023-02-11T06:24:30;11.90;99.90
13148;DHT22;6639;50.956;4.242;2023-02-11T06:26:57;11.90;99.90
13148;DHT22;6639;50.956;4.242;2023-02-11T06:29:25;11.80;99.90
13148;DHT22;6639;50.956;4.242;2023-02-11T06:31:51;11.90;99.90
13148;DHT22;6639;50.956;4.242;2023-02-11T06:34:21;11.90;99.90
13148;DHT22;6639;50.956;4.242;2023-02-11T06:36:49;11.80;99.90
13148;DHT22;6639;50.956;4.242;2023-02-11T06:39:16;11.90;99.90
13148;DHT22;6639;50.956;4.242;2023-02-11T06:41:44;11.80;99.90
13148;DHT22;6639;50.956;4.242;2023-02-11T06:44:11;11.90;99.90
13148;DHT22;6639;50.956;4.242;2023-02-11T06:46:38;12.00;99.90
13148;DHT22;6639;50.956;4.242;2023-02-11T06:49:05;12.20;99.90
13148;DHT22;6639;50.956;4.242;2023-02-11T06:51:33;12.10;99.90
13148;DHT22;6639;50.956;4.242;2023-02-11T06:54:00;11.90;99.90
13148;DHT22;6639;50.956;4.242;2023-02-11T06:56:27;11.50;99.90
13148;DHT22;6639;50.956;4.242;2023-02-11T06:58:57;11.50;99.90
13148;DHT22;6639;50.956;4.242;2023-02-11T07:01:26;11.60;99.90
13148;DHT22;6639;50.956;4.242;2023-02-11T07:03:53;11.80;99.90
13148;DHT22;6639;50.956;4.242;2023-02-11T07:06:23;12.10;99.90
13148;DHT22;6639;50.956;4.242;2023-02-11T07:08:53;12.00;99.90
13148;DHT22;6639;50.956;4.242;2023-02-11T07:11:22;12.20;99.90
13148;DHT22;6639;50.956;4.242;2023-02-11T07:13:53;12.40;99.90
13148;DHT22;6639;50.956;4.242;2023-02-11T07:16:22;12.30;99.90
13148;DHT22;6639;50.956;4.242;2023-02-11T07:18:49;12.40;99.90
13148;DHT22;6639;50.956;4.242;2023-02-11T07:21:19;12.30;99.90
13148;DHT22;6639;50.956;4.242;2023-02-11T07:23:47;12.30;99.90
13148;DHT22;6639;50.956;4.242;2023-02-11T07:26:16;12.10;99.90
13148;DHT22;6639;50.956;4.242;2023-02-11T07:28:44;12.10;99.90
13148;DHT22;6639;50.956;4.242;2023-02-11T07:31:14;11.70;99.90
13148;DHT22;6639;50.956;4.242;2023-02-11T07:33:43;11.90;99.90
13148;DHT22;6639;50.956;4.242;2023-02-11T07:36:11;12.20;99.90
13148;DHT22;6639;50.956;4.242;2023-02-11T07:38:38;12.20;99.90
13148;DHT22;6639;50.956;4.242;2023-02-11T07:41:08;12.30;99.90
13148;DHT22;6639;50.956;4.242;2023-02-11T07:43:36;12.10;99.90
13148;DHT22;6639;50.956;4.242;2023-02-11T07:46:05;12.30;99.90
13148;DHT22;6639;50.956;4.242;2023-02-11T07:48:33;12.70;99.90
13148;DHT22;6639;50.956;4.242;2023-02-11T07:51:08;12.50;99.90
13148;DHT22;6639;50.956;4.242;2023-02-11T07:53:36;12.50;99.90
13148;DHT22;6639;50.956;4.242;2023-02-11T07:56:04;12.40;99.90
13148;DHT22;6639;50.956;4.242;2023-02-11T07:58:33;12.10;99.90
13148;DHT22;6639;50.956;4.242;2023-02-11T08:01:09;12.50;99.90
13148;DHT22;6639;50.956;4.242;2023-02-11T08:03:36;12.50;99.90
13148;DHT22;6639;50.956;4.242;2023-02-11T08:06:04;12.30;99.90
13148;DHT22;6639;50.956;4.242;2023-02-11T08:08:33;12.10;99.90
13148;DHT22;6639;50.956;4.242;2023-02-11T08:11:05;11.90;99.90
13148;DHT22;6639;50.956;4.242;2023-02-11T08:13:32;12.30;99.90
13148;DHT22;6639;50.956;4.242;2023-02-11T08:15:59;12.30;99.90
13148;DHT22;6639;50.956;4.242;2023-02-11T08:18:26;12.50;99.90
13148;DHT22;6639;50.956;4.242;2023-02-11T08:20:53;12.20;99.90
13148;DHT22;6639;50.956;4.242;2023-02-11T08:23:20;12.40;99.90
13148;DHT22;6639;50.956;4.242;2023-02-11T08:25:49;12.50;99.90
13148;DHT22;6639;50.956;4.242;2023-02-11T08:28:16;12.70;99.90
13148;DHT22;6639;50.956;4.242;2023-02-11T08:30:43;12.60;99.90
13148;DHT22;6639;50.956;4.242;2023-02-11T08:33:10;12.30;99.90
13148;DHT22;6639;50.956;4.242;2023-02-11T08:35:37;12.20;99.90
13148;DHT22;6639;50.956;4.242;2023-02-11T08:38:05;12.10;99.90
13148;DHT22;6639;50.956;4.242;2023-02-11T08:40:32;12.10;99.90
13148;DHT22;6639;50.956;4.242;2023-02-11T08:43:00;12.40;99.90
13148;DHT22;6639;50.956;4.242;2023-02-11T08:45:27;12.50;99.90
13148;DHT22;6639;50.956;4.242;2023-02-11T08:47:55;12.30;99.90
13148;DHT22;6639;50.956;4.242;2023-02-11T08:50:22;12.40;99.90
13148;DHT22;6639;50.956;4.242;2023-02-11T08:52:50;12.60;99.90
13148;DHT22;6639;50.956;4.242;2023-02-11T08:55:17;12.60;99.90
13148;DHT22;6639;50.956;4.242;2023-02-11T08:57:44;12.70;99.90
13148;DHT22;6639;50.956;4.242;2023-02-11T09:00:14;12.80;99.90
13148;DHT22;6639;50.956;4.242;2023-02-11T09:02:41;12.80;99.90
13148;DHT22;6639;50.956;4.242;2023-02-11T09:05:08;12.30;99.90
13148;DHT22;6639;50.956;4.242;2023-02-11T09:07:35;12.70;99.90
13148;DHT22;6639;50.956;4.242;2023-02-11T09:10:03;12.70;99.90
13148;DHT22;6639;50.956;4.242;2023-02-11T09:12:31;13.10;99.90
13148;DHT22;6639;50.956;4.242;2023-02-11T09:14:59;13.10;99.90
13148;DHT22;6639;50.956;4.242;2023-02-11T09:17:28;13.30;99.90
13148;DHT22;6639;50.956;4.242;2023-02-11T09:19:55;13.00;99.90
13148;DHT22;6639;50.956;4.242;2023-02-11T09:22:22;12.90;99.90
13148;DHT22;6639;50.956;4.242;2023-02-11T09:24:49;12.50;99.90
13148;DHT22;6639;50.956;4.242;2023-02-11T09:27:16;12.20;99.90
13148;DHT22;6639;50.956;4.242;2023-02-11T09:29:44;12.00;99.90
13148;DHT22;6639;50.956;4.242;2023-02-11T09:32:11;12.00;99.90
13148;DHT22;6639;50.956;4.242;2023-02-11T09:34:42;12.50;99.90
13148;DHT22;6639;50.956;4.242;2023-02-11T09:37:09;12.40;99.90
13148;DHT22;6639;50.956;4.242;2023-02-11T09:39:36;12.60;99.90
13148;DHT22;6639;50.956;4.242;2023-02-11T09:42:29;12.90;99.90
13148;DHT22;6639;50.956;4.242;2023-02-11T09:45:04;13.00;99.90
13148;DHT22;6639;50.956;4.242;2023-02-11T09:47:44;12.70;99.90
13148;DHT22;6639;50.956;4.242;2023-02-11T09:50:15;12.60;99.90
13148;DHT22;6639;50.956;4.242;2023-02-11T09:52:46;12.50;99.90
13148;DHT22;6639;50.956;4.242;2023-02-11T09:55:19;12.50;99.90
13148;DHT22;6639;50.956;4.242;2023-02-11T09:57:48;12.80;99.90
13148;DHT22;6639;50.956;4.242;2023-02-11T10:00:20;12.80;99.90
13148;DHT22;6639;50.956;4.242;2023-02-11T10:03:17;12.40;99.90
13148;DHT22;6639;50.956;4.242;2023-02-11T10:06:06;12.30;99.90
13148;DHT22;6639;50.956;4.242;2023-02-11T10:08:40;12.60;99.90
13148;DHT22;6639;50.956;4.242;2023-02-11T10:11:12;12.70;99.90
13148;DHT22;6639;50.956;4.242;2023-02-11T10:13:50;12.90;99.90
13148;DHT22;6639;50.956;4.242;2023-02-11T10:16:36;12.90;99.90
13148;DHT22;6639;50.956;4.242;2023-02-11T10:19:28;12.90;99.90
13148;DHT22;6639;50.956;4.242;2023-02-11T10:22:06;12.60;99.90
13148;DHT22;6639;50.956;4.242;2023-02-11T10:24:36;12.70;99.90
13148;DHT22;6639;50.956;4.242;2023-02-11T10:27:11;12.80;99.90
13148;DHT22;6639;50.956;4.242;2023-02-11T10:29:44;13.00;99.90
13148;DHT22;6639;50.956;4.242;2023-02-11T10:32:28;13.10;99.90
13148;DHT22;6639;50.956;4.242;2023-02-11T10:35:01;12.80;99.90
13148;DHT22;6639;50.956;4.242;2023-02-11T10:37:35;13.00;99.90
13148;DHT22;6639;50.956;4.242;2023-02-11T10:40:03;13.20;99.90
13148;DHT22;6639;50.956;4.242;2023-02-11T10:42:30;13.10;99.90
13148;DHT22;6639;50.956;4.242;2023-02-11T10:45:01;13.10;99.90
13148;DHT22;6639;50.956;4.242;2023-02-11T10:47:34;13.30;99.90
13148;DHT22;6639;50.956;4.242;2023-02-11T10:50:18;13.30;99.90
13148;DHT22;6639;50.956;4.242;2023-02-11T10:52:46;13.20;99.90
13148;DHT22;6639;50.956;4.242;2023-02-11T10:55:17;13.30;99.90
13148;DHT22;6639;50.956;4.242;2023-02-11T10:57:53;12.90;99.90
13148;DHT22;6639;50.956;4.242;2023-02-11T11:00:42;13.10;99.90
13148;DHT22;6639;50.956;4.242;2023-02-11T11:03:17;13.10;99.90
13148;DHT22;6639;50.956;4.242;2023-02-11T11:05:58;13.50;99.90
13148;DHT22;6639;50.956;4.242;2023-02-11T11:08:39;13.50;99.90
13148;DHT22;6639;50.956;4.242;2023-02-11T11:11:09;13.10;99.90
13148;DHT22;6639;50.956;4.242;2023-02-11T11:13:37;13.10;99.90
13148;DHT22;6639;50.956;4.242;2023-02-11T11:16:18;13.20;99.90
13148;DHT22;6639;50.956;4.242;2023-02-11T11:18:46;13.30;99.90
13148;DHT22;6639;50.956;4.242;2023-02-11T11:21:22;13.40;99.90
13148;DHT22;6639;50.956;4.242;2023-02-11T11:23:56;13.50;99.90
13148;DHT22;6639;50.956;4.242;2023-02-11T11:26:25;13.40;99.90
13148;DHT22;6639;50.956;4.242;2023-02-11T11:28:56;13.60;99.90
13148;DHT22;6639;50.956;4.242;2023-02-11T11:31:27;13.80;99.90
13148;DHT22;6639;50.956;4.242;2023-02-11T11:33:57;14.00;99.90
13148;DHT22;6639;50.956;4.242;2023-02-11T11:36:33;13.40;99.90
13148;DHT22;6639;50.956;4.242;2023-02-11T11:39:09;13.50;99.90
13148;DHT22;6639;50.956;4.242;2023-02-11T11:41:49;13.50;99.90
13148;DHT22;6639;50.956;4.242;2023-02-11T11:44:23;13.90;99.90
13148;DHT22;6639;50.956;4.242;2023-02-11T11:47:04;13.90;99.90
13148;DHT22;6639;50.956;4.242;2023-02-11T11:49:34;13.80;99.90
13148;DHT22;6639;50.956;4.242;2023-02-11T11:52:10;13.70;99.90
13148;DHT22;6639;50.956;4.242;2023-02-11T11:54:46;13.50;99.90
13148;DHT22;6639;50.956;4.242;2023-02-11T11:57:18;13.70;99.90
13148;DHT22;6639;50.956;4.242;2023-02-11T11:59:50;13.60;99.90
13148;DHT22;6639;50.956;4.242;2023-02-11T12:05:23;14.40;99.90
13148;DHT22;6639;50.956;4.242;2023-02-11T12:08:01;14.20;99.90
13148;DHT22;6639;50.956;4.242;2023-02-11T12:10:42;14.20;99.90
13148;DHT22;6639;50.956;4.242;2023-02-11T12:13:23;13.80;99.90
13148;DHT22;6639;50.956;4.242;2023-02-11T12:16:01;14.20;99.90
13148;DHT22;6639;50.956;4.242;2023-02-11T12:18:43;14.20;99.90
13148;DHT22;6639;50.956;4.242;2023-02-11T12:21:22;13.90;99.90
13148;DHT22;6639;50.956;4.242;2023-02-11T12:24:05;14.20;99.90
13148;DHT22;6639;50.956;4.242;2023-02-11T12:26:41;13.90;99.90
13148;DHT22;6639;50.956;4.242;2023-02-11T12:29:18;13.60;99.90
13148;DHT22;6639;50.956;4.242;2023-02-11T12:31:59;13.90;99.90
13148;DHT22;6639;50.956;4.242;2023-02-11T12:34:52;14.10;99.90
13148;DHT22;6639;50.956;4.242;2023-02-11T12:37:29;14.00;99.90
13148;DHT22;6639;50.956;4.242;2023-02-11T12:40:08;14.40;99.90
13148;DHT22;6639;50.956;4.242;2023-02-11T12:42:50;14.20;99.90
13148;DHT22;6639;50.956;4.242;2023-02-11T12:46:03;14.40;99.90
13148;DHT22;6639;50.956;4.242;2023-02-11T12:49:05;14.40;99.90
13148;DHT22;6639;50.956;4.242;2023-02-11T12:51:48;14.40;99.90
13148;DHT22;6639;50.956;4.242;2023-02-11T12:54:22;14.40;99.90
13148;DHT22;6639;50.956;4.242;2023-02-11T12:56:53;14.60;99.90
13148;DHT22;6639;50.956;4.242;2023-02-11T12:59:34;14.80;99.90
13148;DHT22;6639;50.956;4.242;2023-02-11T13:02:13;14.60;99.90
13148;DHT22;6639;50.956;4.242;2023-02-11T13:04:48;14.50;99.90
13148;DHT22;6639;50.956;4.242;2023-02-11T13:07:21;14.70;99.90
13148;DHT22;6639;50.956;4.242;2023-02-11T13:09:53;15.00;99.90
13148;DHT22;6639;50.956;4.242;2023-02-11T13:12:22;15.20;99.90
13148;DHT22;6639;50.956;4.242;2023-02-11T13:15:13;15.40;99.90
13148;DHT22;6639;50.956;4.242;2023-02-11T13:17:47;15.20;99.90
13148;DHT22;6639;50.956;4.242;2023-02-11T13:20:24;15.50;99.90
13148;DHT22;6639;50.956;4.242;2023-02-11T13:22:57;15.00;99.90
13148;DHT22;6639;50.956;4.242;2023-02-11T13:25:41;14.70;99.90
13148;DHT22;6639;50.956;4.242;2023-02-11T13:28:22;14.90;99.90
13148;DHT22;6639;50.956;4.242;2023-02-11T13:30:52;15.30;99.90
13148;DHT22;6639;50.956;4.242;2023-02-11T13:33:32;15.50;99.90
13148;DHT22;6639;50.956;4.242;2023-02-11T13:36:23;15.20;99.90
13148;DHT22;6639;50.956;4.242;2023-02-11T13:38:59;15.10;99.90
13148;DHT22;6639;50.956;4.242;2023-02-11T13:41:36;15.20;99.90
13148;DHT22;6639;50.956;4.242;2023-02-11T13:44:28;15.40;99.90
13148;DHT22;6639;50.956;4.242;2023-02-11T13:46:59;15.80;99.90
13148;DHT22;6639;50.956;4.242;2023-02-11T13:49:33;16.00;99.90
13148;DHT22;6639;50.956;4.242;2023-02-11T13:52:15;16.00;99.90
13148;DHT22;6639;50.956;4.242;2023-02-11T13:54:47;16.20;99.90
13148;DHT22;6639;50.956;4.242;2023-02-11T13:57:38;16.20;99.90
13148;DHT22;6639;50.956;4.242;2023-02-11T14:03:37;15.20;99.90
13148;DHT22;6639;50.956;4.242;2023-02-11T14:06:25;14.80;99.90
13148;DHT22;6639;50.956;4.242;2023-02-11T14:09:38;15.00;99.90
13148;DHT22;6639;50.956;4.242;2023-02-11T14:12:30;15.20;99.90
13148;DHT22;6639;50.956;4.242;2023-02-11T14:15:00;15.70;99.90
13148;DHT22;6639;50.956;4.242;2023-02-11T14:17:30;15.80;99.90
13148;DHT22;6639;50.956;4.242;2023-02-11T14:20:00;15.70;99.90
13148;DHT22;6639;50.956;4.242;2023-02-11T14:22:38;15.90;99.90
13148;DHT22;6639;50.956;4.242;2023-02-11T14:25:17;15.90;99.90
13148;DHT22;6639;50.956;4.242;2023-02-11T14:27:50;15.90;99.90
13148;DHT22;6639;50.956;4.242;2023-02-11T14:30:45;16.40;99.90
13148;DHT22;6639;50.956;4.242;2023-02-11T14:36:51;16.20;99.90
13148;DHT22;6639;50.956;4.242;2023-02-11T14:39:26;16.20;99.90
13148;DHT22;6639;50.956;4.242;2023-02-11T14:41:56;15.90;99.90
13148;DHT22;6639;50.956;4.242;2023-02-11T14:44:26;15.80;99.90
13148;DHT22;6639;50.956;4.242;2023-02-11T14:47:04;16.00;99.90
13148;DHT22;6639;50.956;4.242;2023-02-11T14:49:33;16.00;99.90
13148;DHT22;6639;50.956;4.242;2023-02-11T14:52:12;15.90;99.90
13148;DHT22;6639;50.956;4.242;2023-02-11T14:54:42;16.20;99.90
13148;DHT22;6639;50.956;4.242;2023-02-11T14:57:13;16.50;99.90
13148;DHT22;6639;50.956;4.242;2023-02-11T14:59:52;16.70;99.90
13148;DHT22;6639;50.956;4.242;2023-02-11T15:02:27;16.40;99.90
13148;DHT22;6639;50.956;4.242;2023-02-11T15:04:54;16.30;99.90
13148;DHT22;6639;50.956;4.242;2023-02-11T15:07:44;16.40;99.90
13148;DHT22;6639;50.956;4.242;2023-02-11T15:10:18;16.30;99.90
13148;DHT22;6639;50.956;4.242;2023-02-11T15:12:48;16.60;99.90
13148;DHT22;6639;50.956;4.242;2023-02-11T15:15:15;16.50;99.90
13148;DHT22;6639;50.956;4.242;2023-02-11T15:17:43;16.40;99.90
13148;DHT22;6639;50.956;4.242;2023-02-11T15:20:19;15.90;99.90
13148;DHT22;6639;50.956;4.242;2023-02-11T15:22:53;15.70;99.90
13148;DHT22;6639;50.956;4.242;2023-02-11T15:25:21;15.90;99.90
13148;DHT22;6639;50.956;4.242;2023-02-11T15:27:50;15.90;99.90
13148;DHT22;6639;50.956;4.242;2023-02-11T15:30:25;16.20;99.90
13148;DHT22;6639;50.956;4.242;2023-02-11T15:32:55;16.40;99.90
13148;DHT22;6639;50.956;4.242;2023-02-11T15:35:26;16.50;99.90
13148;DHT22;6639;50.956;4.242;2023-02-11T15:37:55;16.60;99.90
13148;DHT22;6639;50.956;4.242;2023-02-11T15:40:24;16.70;99.90
13148;DHT22;6639;50.956;4.242;2023-02-11T15:42:55;16.70;99.90
13148;DHT22;6639;50.956;4.242;2023-02-11T15:45:25;16.80;99.90
13148;DHT22;6639;50.956;4.242;2023-02-11T15:47:58;16.70;99.90
13148;DHT22;6639;50.956;4.242;2023-02-11T15:50:27;16.90;99.90
13148;DHT22;6639;50.956;4.242;2023-02-11T15:52:57;17.10;99.90
13148;DHT22;6639;50.956;4.242;2023-02-11T15:55:26;17.30;99.90
13148;DHT22;6639;50.956;4.242;2023-02-11T15:57:55;17.40;99.90
13148;DHT22;6639;50.956;4.242;2023-02-11T16:00:24;17.50;99.90
13148;DHT22;6639;50.956;4.242;2023-02-11T16:02:56;17.30;99.90
13148;DHT22;6639;50.956;4.242;2023-02-11T16:05:28;17.30;99.90
13148;DHT22;6639;50.956;4.242;2023-02-11T16:07:58;17.50;99.90
13148;DHT22;6639;50.956;4.242;2023-02-11T16:10:28;17.50;99.90
13148;DHT22;6639;50.956;4.242;2023-02-11T16:13:14;17.40;99.90
13148;DHT22;6639;50.956;4.242;2023-02-11T16:15:45;17.40;99.90
13148;DHT22;6639;50.956;4.242;2023-02-11T16:18:27;17.10;99.90
13148;DHT22;6639;50.956;4.242;2023-02-11T16:20:54;17.10;99.90
13148;DHT22;6639;50.956;4.242;2023-02-11T16:23:26;17.30;99.90
13148;DHT22;6639;50.956;4.242;2023-02-11T16:25:58;17.40;99.90
13148;DHT22;6639;50.956;4.242;2023-02-11T16:28:27;17.50;99.90
13148;DHT22;6639;50.956;4.242;2023-02-11T16:30:55;17.50;99.90